Time;durP1;ratioP1;P1;durP2;ratioP2;P2;SDS_P1;SDS_P2;PMS_P1;PMS_P2;Temp;Humidity;BMP_temperature;BMP_pressure;BME280_temperature;BME280_humidity;BME280_pressure;Samples;Min_cycle;Max_cycle;Signal;HPM_P1;HPM_P2
2023/06/22 00:01:14;;;;;;;7.63;6.37;;;20.30;99.90;;;;;;4992883;28;20696;-77
2023/06/22 00:03:41;;;;;;;9.40;8.50;;;20.30;99.90;;;;;;5027824;28;20216;-75
2023/06/22 00:06:07;;;;;;;8.77;7.23;;;20.30;99.90;;;;;;4987441;28;20566;-76
2023/06/22 00:08:34;;;;;;;11.83;10.83;;;20.20;99.90;;;;;;4990707;28;20235;-75
2023/06/22 00:11:01;;;;;;;9.40;8.50;;;20.20;99.90;;;;;;4989906;28;20282;-75
2023/06/22 00:13:29;;;;;;;8.43;7.63;;;20.30;99.90;;;;;;4993838;28;20267;-75
2023/06/22 00:15:56;;;;;;;11.20;10.30;;;20.20;99.90;;;;;;4992544;28;20323;-74
2023/06/22 00:18:27;;;;;;;9.73;6.53;;;20.30;99.90;;;;;;5023232;28;20209;-77
2023/06/22 00:20:57;;;;;;;9.57;7.40;;;20.30;99.90;;;;;;4993891;28;20220;-76
2023/06/22 00:23:24;;;;;;;8.33;7.20;;;20.20;99.90;;;;;;5026582;28;20209;-76
2023/06/22 00:25:52;;;;;;;8.33;6.77;;;20.20;99.90;;;;;;4985261;28;20206;-76
2023/06/22 00:28:18;;;;;;;8.10;6.90;;;20.20;99.90;;;;;;4995205;28;20628;-76
2023/06/22 00:30:47;;;;;;;8.80;7.90;;;20.20;99.90;;;;;;4991421;28;20267;-77
2023/06/22 00:33:15;;;;;;;7.63;6.57;;;20.10;99.90;;;;;;4990819;28;20242;-76
2023/06/22 00:35:42;;;;;;;9.17;7.50;;;20.10;99.90;;;;;;4991260;28;20668;-75
2023/06/22 00:38:09;;;;;;;12.00;10.90;;;20.00;99.90;;;;;;4989346;28;20204;-76
2023/06/22 00:40:36;;;;;;;13.27;10.47;;;20.00;99.90;;;;;;4993145;28;20707;-76
2023/06/22 00:43:04;;;;;;;10.87;9.77;;;19.90;99.90;;;;;;5026274;28;20201;-75
2023/06/22 00:45:31;;;;;;;10.03;9.13;;;19.90;99.90;;;;;;4995370;28;20204;-76
2023/06/22 00:48:00;;;;;;;10.00;9.10;;;19.90;99.90;;;;;;4991339;28;20207;-76
2023/06/22 00:50:28;;;;;;;11.93;9.47;;;19.90;99.90;;;;;;4988005;28;20235;-77
2023/06/22 00:52:58;;;;;;;11.13;9.67;;;19.90;99.90;;;;;;4992888;28;20204;-76
2023/06/22 00:55:25;;;;;;;9.53;8.63;;;19.80;99.90;;;;;;4993070;28;20207;-76
2023/06/22 00:57:55;;;;;;;9.50;8.67;;;19.80;99.90;;;;;;4984228;28;20315;-76
2023/06/22 01:00:24;;;;;;;10.20;9.20;;;19.80;99.90;;;;;;4987432;28;20263;-76
2023/06/22 01:02:52;;;;;;;9.33;8.43;;;19.70;99.90;;;;;;4987777;28;20236;-76
2023/06/22 01:05:21;;;;;;;9.53;8.53;;;19.80;99.90;;;;;;5025206;28;20204;-75
2023/06/22 01:08:02;;;;;;;10.00;8.80;;;19.70;99.90;;;;;;4982856;28;20292;-76
2023/06/22 01:10:37;;;;;;;9.77;8.87;;;19.70;99.90;;;;;;5012400;28;20685;-76
2023/06/22 01:13:23;;;;;;;9.97;9.03;;;19.60;99.90;;;;;;4993675;28;20226;-77
2023/06/22 01:15:54;;;;;;;11.33;10.33;;;19.60;99.90;;;;;;4991717;28;20383;-76
2023/06/22 01:18:25;;;;;;;11.60;10.50;;;19.60;99.90;;;;;;4990548;28;20620;-76
2023/06/22 01:20:55;;;;;;;11.63;10.53;;;19.50;99.90;;;;;;4990594;28;20228;-76
2023/06/22 01:23:33;;;;;;;11.70;10.60;;;19.50;99.90;;;;;;4989884;28;20197;-76
2023/06/22 01:26:07;;;;;;;12.40;11.23;;;19.50;99.90;;;;;;5022546;28;20231;-75
2023/06/22 01:28:47;;;;;;;9.47;7.43;;;19.50;99.90;;;;;;4992281;28;20207;-76
2023/06/22 01:31:16;;;;;;;8.47;7.47;;;19.50;99.90;;;;;;4992021;28;20219;-75
2023/06/22 01:33:48;;;;;;;10.97;8.20;;;19.50;99.90;;;;;;4994038;28;20227;-76
2023/06/22 01:36:16;;;;;;;9.70;7.97;;;19.50;99.90;;;;;;4991920;28;20204;-76
2023/06/22 01:38:44;;;;;;;9.07;7.40;;;19.40;99.90;;;;;;4981312;28;20253;-75
2023/06/22 01:41:12;;;;;;;9.47;7.87;;;19.50;99.90;;;;;;4988693;28;20308;-76
2023/06/22 01:43:40;;;;;;;12.30;8.23;;;19.40;99.90;;;;;;4988076;28;20200;-76
2023/06/22 01:46:08;;;;;;;11.60;8.57;;;19.40;99.90;;;;;;4989569;28;20207;-75
2023/06/22 01:48:35;;;;;;;8.57;7.73;;;19.40;99.90;;;;;;4988679;28;20208;-74
2023/06/22 01:51:03;;;;;;;8.23;7.43;;;19.30;99.90;;;;;;4989111;28;20262;-76
2023/06/22 01:53:30;;;;;;;9.73;8.50;;;19.30;99.90;;;;;;4990889;28;20203;-75
2023/06/22 01:55:57;;;;;;;10.57;9.03;;;19.40;99.90;;;;;;4993648;28;20202;-76
2023/06/22 01:58:28;;;;;;;9.73;8.13;;;19.30;99.90;;;;;;4993093;28;20219;-76
2023/06/22 02:00:59;;;;;;;11.13;10.13;;;19.30;99.90;;;;;;4990666;28;20223;-76
2023/06/22 02:03:32;;;;;;;12.50;11.30;;;19.30;99.90;;;;;;4989044;28;20212;-77
2023/06/22 02:06:05;;;;;;;10.67;9.77;;;19.30;99.90;;;;;;4987495;28;20195;-76
2023/06/22 02:08:37;;;;;;;11.80;10.63;;;19.30;99.90;;;;;;4986963;28;20196;-76
2023/06/22 02:11:07;;;;;;;11.20;10.20;;;19.20;99.90;;;;;;4991735;28;20776;-76
2023/06/22 02:13:37;;;;;;;12.20;11.03;;;19.30;99.90;;;;;;4990717;28;20203;-76
2023/06/22 02:16:05;;;;;;;12.03;10.97;;;19.20;99.90;;;;;;4990894;28;20589;-76
2023/06/22 02:18:36;;;;;;;11.80;10.80;;;19.20;99.90;;;;;;4991577;28;20230;-75
2023/06/22 02:21:02;;;;;;;11.87;10.87;;;19.20;99.90;;;;;;4989756;28;20222;-76
2023/06/22 02:23:29;;;;;;;12.93;11.73;;;19.20;99.90;;;;;;4988585;28;20262;-75
2023/06/22 02:25:56;;;;;;;14.53;13.13;;;19.10;99.90;;;;;;4984863;28;20623;-74
2023/06/22 02:28:25;;;;;;;11.97;9.90;;;19.00;99.90;;;;;;4989398;28;20199;-76
2023/06/22 02:30:51;;;;;;;12.00;9.43;;;19.00;99.90;;;;;;4989575;28;20250;-76
2023/06/22 02:33:20;;;;;;;9.07;8.20;;;19.00;99.90;;;;;;5021485;28;20278;-75
2023/06/22 02:35:48;;;;;;;11.53;8.77;;;18.90;99.90;;;;;;4992698;28;20666;-77
2023/06/22 02:38:17;;;;;;;14.90;13.50;;;18.90;99.90;;;;;;5015554;28;20223;-75
2023/06/22 02:40:45;;;;;;;9.83;8.67;;;18.90;99.90;;;;;;4982251;28;20214;-76
2023/06/22 02:43:11;;;;;;;14.50;12.67;;;18.80;99.90;;;;;;4977565;28;20198;-76
2023/06/22 02:45:38;;;;;;;10.17;8.80;;;18.80;99.90;;;;;;4984771;28;20779;-74
2023/06/22 02:48:06;;;;;;;11.10;9.00;;;18.80;99.90;;;;;;4973873;28;20201;-76
2023/06/22 02:50:33;;;;;;;10.20;8.90;;;18.80;99.90;;;;;;4978327;28;20345;-76
2023/06/22 02:53:02;;;;;;;9.07;7.93;;;18.70;99.90;;;;;;4973347;28;20196;-81
2023/06/22 02:55:32;;;;;;;8.40;7.60;;;18.70;99.90;;;;;;4979003;28;20203;-76
2023/06/22 02:58:02;;;;;;;9.00;8.10;;;18.70;99.90;;;;;;4983446;28;20211;-76
2023/06/22 03:00:32;;;;;;;10.33;8.43;;;18.70;99.90;;;;;;4971062;28;20224;-76
2023/06/22 03:02:59;;;;;;;9.67;8.47;;;18.60;99.90;;;;;;4971352;28;20203;-76
2023/06/22 03:05:26;;;;;;;8.83;7.93;;;18.60;99.90;;;;;;4975476;28;20606;-76
2023/06/22 03:07:54;;;;;;;8.63;7.83;;;18.60;99.90;;;;;;4967811;28;20198;-75
2023/06/22 03:10:22;;;;;;;9.03;8.00;;;18.60;99.90;;;;;;4998345;28;20637;-76
2023/06/22 03:12:49;;;;;;;9.40;8.10;;;18.60;99.90;;;;;;5008299;28;20206;-76
2023/06/22 03:15:19;;;;;;;10.40;8.30;;;18.50;99.90;;;;;;4984391;28;20218;-77
2023/06/22 03:17:46;;;;;;;8.90;8.00;;;18.50;99.90;;;;;;5016048;28;20237;-77
2023/06/22 03:20:13;;;;;;;8.87;7.97;;;18.50;99.90;;;;;;4986125;28;20621;-76
2023/06/22 03:22:43;;;;;;;8.57;7.67;;;18.50;99.90;;;;;;5008406;28;20207;-76
2023/06/22 03:25:12;;;;;;;7.93;7.23;;;18.50;99.90;;;;;;5021075;28;20199;-77
2023/06/22 03:27:43;;;;;;;7.63;6.83;;;18.50;99.90;;;;;;5015691;28;20563;-77
2023/06/22 03:30:12;;;;;;;8.50;7.60;;;18.50;99.90;;;;;;4984773;28;20228;-76
2023/06/22 03:32:39;;;;;;;11.87;8.53;;;18.50;99.90;;;;;;4976929;28;20200;-77
2023/06/22 03:35:07;;;;;;;9.97;8.93;;;18.50;99.90;;;;;;4984483;28;20555;-77
2023/06/22 03:37:36;;;;;;;13.23;12.20;;;18.40;99.90;;;;;;5015685;28;20239;-76
2023/06/22 03:40:05;;;;;;;16.37;15.17;;;18.50;99.90;;;;;;4984395;28;20202;-76
2023/06/22 03:42:34;;;;;;;13.87;12.57;;;18.40;99.90;;;;;;5020309;28;20255;-76
2023/06/22 03:45:03;;;;;;;13.10;11.97;;;18.50;99.90;;;;;;4982138;28;20200;-77
2023/06/22 03:47:30;;;;;;;13.43;12.33;;;18.40;99.90;;;;;;4983284;28;20200;-77
2023/06/22 03:49:58;;;;;;;13.63;12.43;;;18.50;99.90;;;;;;4988352;28;20688;-77
2023/06/22 03:52:25;;;;;;;12.40;11.30;;;18.50;99.90;;;;;;4988843;28;20208;-77
2023/06/22 03:54:52;;;;;;;12.67;11.60;;;18.60;99.90;;;;;;4991253;28;20299;-76
2023/06/22 03:57:19;;;;;;;12.87;11.70;;;18.60;99.90;;;;;;4990162;28;20301;-77
2023/06/22 03:59:46;;;;;;;12.43;11.33;;;18.60;99.90;;;;;;4987509;28;20202;-77
2023/06/22 04:02:14;;;;;;;14.53;13.33;;;18.70;99.90;;;;;;5017741;28;20228;-77
2023/06/22 04:04:41;;;;;;;13.10;12.00;;;18.80;99.90;;;;;;4970331;28;20200;-76
2023/06/22 04:07:08;;;;;;;13.57;12.43;;;18.80;99.90;;;;;;4987209;28;20235;-77
2023/06/22 04:09:35;;;;;;;11.70;10.47;;;18.80;99.90;;;;;;4988007;28;20593;-76
2023/06/22 04:12:02;;;;;;;12.17;11.17;;;18.90;99.90;;;;;;4979621;28;20278;-76
2023/06/22 04:14:29;;;;;;;8.93;8.03;;;19.00;99.90;;;;;;4990629;28;20267;-77
2023/06/22 04:16:56;;;;;;;12.17;11.13;;;19.10;99.90;;;;;;4981634;28;20225;-76
2023/06/22 04:19:24;;;;;;;13.13;10.77;;;19.20;99.90;;;;;;4984048;28;20250;-76
2023/06/22 04:21:51;;;;;;;9.87;8.90;;;19.30;99.90;;;;;;4984256;28;20219;-77
2023/06/22 04:24:18;;;;;;;10.20;9.20;;;19.50;99.90;;;;;;4984170;28;20228;-76
2023/06/22 04:26:46;;;;;;;10.13;9.13;;;19.60;99.90;;;;;;4988733;28;20562;-77
2023/06/22 04:29:13;;;;;;;10.13;9.13;;;19.70;99.90;;;;;;4987275;28;20197;-77
2023/06/22 04:31:40;;;;;;;9.87;8.97;;;19.80;99.90;;;;;;4984629;28;20220;-76
2023/06/22 04:34:08;;;;;;;9.40;8.50;;;19.90;99.90;;;;;;4990070;28;20280;-76
2023/06/22 04:36:38;;;;;;;8.63;7.83;;;20.10;99.90;;;;;;4989897;28;20207;-77
2023/06/22 04:39:06;;;;;;;9.30;8.40;;;20.20;99.90;;;;;;4988079;28;20276;-76
2023/06/22 04:41:41;;;;;;;10.50;8.70;;;20.30;99.90;;;;;;4987487;28;20293;-76
2023/06/22 04:44:09;;;;;;;9.40;8.10;;;20.40;99.90;;;;;;4985699;28;20232;-77
2023/06/22 04:46:38;;;;;;;10.67;8.37;;;20.40;99.90;;;;;;4990564;28;20208;-77
2023/06/22 04:49:09;;;;;;;12.30;8.80;;;20.60;99.90;;;;;;4991513;28;20676;-77
2023/06/22 04:51:39;;;;;;;9.50;8.57;;;20.70;99.90;;;;;;4994074;28;20232;-76
2023/06/22 04:54:06;;;;;;;11.53;8.83;;;20.80;99.90;;;;;;4991214;28;20200;-75
2023/06/22 04:56:32;;;;;;;8.77;7.90;;;21.00;99.90;;;;;;4986853;28;20205;-76
2023/06/22 04:59:00;;;;;;;12.30;7.83;;;21.10;99.90;;;;;;4988028;28;20300;-76
2023/06/22 05:01:27;;;;;;;9.93;8.63;;;21.40;99.90;;;;;;4982590;28;20222;-76
2023/06/22 05:03:55;;;;;;;15.43;10.80;;;21.40;99.90;;;;;;4989600;28;20698;-77
2023/06/22 05:06:24;;;;;;;10.90;8.87;;;21.30;99.90;;;;;;4989998;28;20632;-77
2023/06/22 05:08:57;;;;;;;10.73;9.20;;;21.40;99.90;;;;;;4992201;28;20244;-76
2023/06/22 05:11:24;;;;;;;9.43;8.50;;;21.50;99.90;;;;;;4993124;28;20209;-77
2023/06/22 05:13:51;;;;;;;10.53;8.93;;;21.70;99.90;;;;;;4980741;28;20259;-76
2023/06/22 05:16:23;;;;;;;12.20;9.20;;;21.80;99.90;;;;;;4994901;28;20224;-77
2023/06/22 05:18:53;;;;;;;9.40;8.50;;;22.10;99.90;;;;;;4991234;28;20264;-76
2023/06/22 05:21:22;;;;;;;12.37;8.90;;;22.40;99.90;;;;;;4989893;28;20312;-77
2023/06/22 05:23:49;;;;;;;12.03;8.90;;;22.60;99.90;;;;;;4990269;28;20201;-77
2023/06/22 05:26:17;;;;;;;13.23;12.03;;;22.70;99.90;;;;;;4988728;28;20634;-76
2023/06/22 05:28:46;;;;;;;13.07;11.77;;;22.80;99.90;;;;;;4993323;28;20240;-77
2023/06/22 05:31:13;;;;;;;10.57;8.60;;;22.80;99.90;;;;;;4992262;28;20715;-76
2023/06/22 05:33:39;;;;;;;12.93;8.43;;;22.70;99.90;;;;;;4987870;28;20761;-76
2023/06/22 05:36:06;;;;;;;9.00;7.87;;;22.70;99.90;;;;;;4986097;28;20205;-76
2023/06/22 05:38:33;;;;;;;9.10;7.93;;;22.80;99.90;;;;;;4984354;28;20217;-77
2023/06/22 05:41:00;;;;;;;10.43;8.20;;;23.10;99.90;;;;;;4975925;28;20652;-77
2023/06/22 05:43:28;;;;;;;11.53;10.53;;;23.50;99.90;;;;;;4975147;28;20252;-76
2023/06/22 05:45:55;;;;;;;9.43;7.67;;;23.70;99.90;;;;;;4975668;28;20947;-77
2023/06/22 05:48:22;;;;;;;9.67;7.83;;;24.20;99.90;;;;;;5007100;28;20702;-77
2023/06/22 05:50:49;;;;;;;10.10;9.10;;;24.60;99.90;;;;;;5006614;28;20234;-77
2023/06/22 05:53:16;;;;;;;13.07;11.83;;;25.00;99.90;;;;;;4974892;28;20658;-77
2023/06/22 05:55:43;;;;;;;11.97;10.87;;;25.20;99.90;;;;;;5003108;28;20209;-77
2023/06/22 05:58:10;;;;;;;12.53;11.33;;;25.60;99.90;;;;;;4975244;28;20300;-77
2023/06/22 06:00:38;;;;;;;12.90;11.17;;;25.90;99.90;;;;;;4975455;28;20292;-77
2023/06/22 06:03:05;;;;;;;11.83;10.80;;;26.30;99.90;;;;;;4974879;28;20194;-77
2023/06/22 06:05:32;;;;;;;11.37;10.20;;;26.60;99.90;;;;;;4973764;28;20301;-76
2023/06/22 06:07:59;;;;;;;11.63;10.53;;;26.90;99.90;;;;;;4973573;28;20629;-77
2023/06/22 06:10:26;;;;;;;11.93;10.30;;;27.00;99.90;;;;;;4974745;28;20217;-77
2023/06/22 06:12:53;;;;;;;11.00;10.00;;;27.00;99.90;;;;;;4973548;28;20214;-76
2023/06/22 06:15:20;;;;;;;12.17;10.07;;;27.00;99.90;;;;;;4974841;28;20198;-77
2023/06/22 06:17:49;;;;;;;11.13;10.03;;;27.20;99.90;;;;;;4974907;28;20197;-77
2023/06/22 06:20:16;;;;;;;11.17;10.00;;;27.40;99.90;;;;;;4974724;28;20222;-77
2023/06/22 06:22:43;;;;;;;12.40;11.33;;;27.50;99.90;;;;;;4967294;28;20202;-77
2023/06/22 06:25:16;;;;;;;10.57;9.67;;;27.30;99.90;;;;;;4974501;28;20289;-77
2023/06/22 06:27:43;;;;;;;11.50;10.43;;;27.60;99.90;;;;;;4981055;28;20253;-77
2023/06/22 06:30:12;;;;;;;11.53;10.10;;;28.00;99.90;;;;;;4974691;28;20217;-77
2023/06/22 06:32:39;;;;;;;11.30;9.87;;;28.20;99.90;;;;;;4974516;28;20206;-78
2023/06/22 06:35:09;;;;;;;10.87;9.87;;;28.20;99.90;;;;;;4973412;28;20575;-77
2023/06/22 06:37:38;;;;;;;11.03;9.73;;;28.60;99.90;;;;;;4973911;28;20204;-76
2023/06/22 06:40:08;;;;;;;10.07;9.13;;;28.70;99.90;;;;;;4972768;28;20225;-77
2023/06/22 06:42:34;;;;;;;10.63;9.73;;;28.90;99.90;;;;;;4973888;28;20198;-77
2023/06/22 06:45:01;;;;;;;11.27;9.87;;;29.10;99.90;;;;;;4974489;28;20202;-77
2023/06/22 06:47:28;;;;;;;11.80;10.17;;;29.30;99.90;;;;;;4973164;28;20680;-76
2023/06/22 06:49:55;;;;;;;11.10;10.03;;;29.40;99.90;;;;;;4973718;28;20226;-77
2023/06/22 06:52:23;;;;;;;12.03;10.83;;;29.50;99.90;;;;;;4972488;28;20202;-77
2023/06/22 06:54:51;;;;;;;10.80;8.93;;;29.40;99.90;;;;;;4973105;28;20198;-77
2023/06/22 06:57:18;;;;;;;10.87;9.70;;;29.50;99.90;;;;;;4974412;28;20202;-77
2023/06/22 06:59:45;;;;;;;12.00;10.73;;;29.50;99.90;;;;;;4964820;28;20648;-78
2023/06/22 07:02:12;;;;;;;9.73;7.93;;;29.60;99.90;;;;;;4973552;28;20218;-77
2023/06/22 07:04:39;;;;;;;10.13;9.30;;;29.60;99.90;;;;;;4973702;28;20256;-77
2023/06/22 07:07:06;;;;;;;9.17;8.33;;;29.80;99.90;;;;;;4973984;28;20261;-78
2023/06/22 07:09:34;;;;;;;9.33;8.43;;;30.10;99.90;;;;;;4972069;28;20248;-77
2023/06/22 07:12:01;;;;;;;10.23;9.13;;;30.20;99.90;;;;;;4972402;28;20222;-77
2023/06/22 07:14:27;;;;;;;10.03;8.80;;;30.30;99.90;;;;;;4971067;28;20209;-77
2023/06/22 07:16:54;;;;;;;8.83;8.03;;;30.40;99.90;;;;;;4972652;28;20205;-77
2023/06/22 07:19:26;;;;;;;10.27;9.20;;;30.50;99.90;;;;;;5004204;28;20301;-77
2023/06/22 07:21:53;;;;;;;10.13;8.43;;;30.50;99.90;;;;;;4971873;28;20221;-76
2023/06/22 07:24:20;;;;;;;9.30;8.33;;;30.50;99.90;;;;;;4973494;28;20194;-80
2023/06/22 07:26:49;;;;;;;9.43;8.63;;;30.50;99.90;;;;;;4972128;28;20229;-77
2023/06/22 07:29:17;;;;;;;12.13;9.27;;;30.40;99.90;;;;;;4971909;28;20200;-76
2023/06/22 07:31:44;;;;;;;11.23;8.83;;;30.40;99.90;;;;;;4971518;28;20241;-76
2023/06/22 07:34:11;;;;;;;11.30;9.03;;;30.30;99.90;;;;;;4971360;28;20198;-76
2023/06/22 07:36:37;;;;;;;11.70;10.00;;;30.40;99.90;;;;;;4971361;28;20644;-76
2023/06/22 07:39:04;;;;;;;9.33;8.43;;;30.20;99.90;;;;;;4971398;28;20221;-77
2023/06/22 07:41:31;;;;;;;10.17;8.03;;;30.00;99.90;;;;;;4972868;28;20218;-76
2023/06/22 07:43:59;;;;;;;14.37;8.80;;;30.10;99.90;;;;;;4971729;28;20218;-76
2023/06/22 07:46:26;;;;;;;10.60;8.87;;;30.20;99.90;;;;;;4972789;28;20257;-76
2023/06/22 07:48:53;;;;;;;9.37;8.47;;;30.20;99.90;;;;;;4972467;28;20281;-77
2023/06/22 07:51:20;;;;;;;9.43;7.67;;;30.50;99.90;;;;;;5004835;28;20264;-77
2023/06/22 07:53:47;;;;;;;9.43;8.47;;;30.60;99.90;;;;;;4973072;28;20613;-77
2023/06/22 07:56:18;;;;;;;12.07;7.77;;;30.90;99.90;;;;;;4972640;28;20202;-78
2023/06/22 07:58:45;;;;;;;9.67;8.63;;;31.00;99.90;;;;;;4971432;28;20218;-77
2023/06/22 08:01:15;;;;;;;9.27;7.90;;;31.30;99.90;;;;;;4971419;28;20313;-78
2023/06/22 08:03:41;;;;;;;9.52;8.20;;;31.50;99.90;;;;;;5005489;28;20256;-78
2023/06/22 08:06:09;;;;;;;9.07;8.20;;;31.30;99.90;;;;;;4973411;28;20206;-77
2023/06/22 08:08:36;;;;;;;8.68;7.88;;;31.30;99.90;;;;;;5008373;28;20209;-77
2023/06/22 08:11:03;;;;;;;10.93;8.20;;;31.10;99.90;;;;;;4975390;28;20830;-77
2023/06/22 08:13:30;;;;;;;9.38;8.20;;;31.00;99.90;;;;;;4976897;28;20206;-77
2023/06/22 08:15:57;;;;;;;10.30;8.60;;;31.10;99.90;;;;;;4974915;28;20632;-77
2023/06/22 08:18:25;;;;;;;10.47;8.53;;;31.10;99.90;;;;;;4976265;28;20247;-77
2023/06/22 08:20:52;;;;;;;9.00;8.10;;;31.30;99.90;;;;;;4975317;28;20268;-77
2023/06/22 08:23:18;;;;;;;10.45;8.30;;;31.40;99.90;;;;;;4976413;28;20281;-77
2023/06/22 08:25:45;;;;;;;9.68;8.55;;;31.50;99.90;;;;;;4977760;28;20751;-80
2023/06/22 08:28:12;;;;;;;8.90;8.00;;;31.80;99.90;;;;;;4977431;28;20209;-79
2023/06/22 08:30:39;;;;;;;9.07;8.27;;;32.00;99.90;;;;;;4973929;28;20222;-78
2023/06/22 08:33:06;;;;;;;8.70;7.90;;;32.20;99.90;;;;;;4976198;28;20198;-79
2023/06/22 08:35:34;;;;;;;9.23;8.30;;;32.30;99.90;;;;;;4971977;28;20210;-79
2023/06/22 08:38:02;;;;;;;10.02;8.57;;;32.50;99.90;;;;;;4974325;28;20832;-80
2023/06/22 08:40:29;;;;;;;9.63;8.68;;;32.70;99.90;;;;;;4974657;28;20226;-78
2023/06/22 08:42:56;;;;;;;9.65;8.70;;;32.80;99.90;;;;;;4976053;28;20569;-79
2023/06/22 08:45:23;;;;;;;9.98;8.68;;;32.50;99.90;;;;;;4976423;28;20278;-77
2023/06/22 08:47:49;;;;;;;10.40;8.27;;;32.30;99.90;;;;;;4979131;28;20704;-76
2023/06/22 08:50:16;;;;;;;9.63;8.63;;;31.80;99.90;;;;;;4974274;28;20242;-76
2023/06/22 08:52:45;;;;;;;12.25;9.57;;;32.20;99.90;;;;;;4975961;28;20276;-78
2023/06/22 08:55:12;;;;;;;12.23;8.52;;;32.50;99.90;;;;;;4975716;28;20198;-76
2023/06/22 08:57:39;;;;;;;11.32;8.80;;;32.70;99.90;;;;;;4975251;28;20198;-77
2023/06/22 09:00:15;;;;;;;9.07;8.10;;;33.20;99.90;;;;;;4975255;28;20218;-76
2023/06/22 09:02:42;;;;;;;10.50;8.88;;;33.50;99.90;;;;;;4978685;28;20221;-80
2023/06/22 09:05:10;;;;;;;9.52;8.50;;;33.90;99.90;;;;;;4978111;28;20637;-79
2023/06/22 09:07:37;;;;;;;9.13;7.68;;;34.10;99.90;;;;;;5008094;28;20206;-78
2023/06/22 09:10:06;;;;;;;9.93;8.73;;;34.10;99.90;;;;;;4976892;28;20194;-78
2023/06/22 09:12:33;;;;;;;10.25;8.45;;;34.30;99.90;;;;;;4977121;28;20201;-77
2023/06/22 09:15:00;;;;;;;11.25;8.18;;;34.40;99.90;;;;;;4975769;28;20198;-77
2023/06/22 09:17:27;;;;;;;9.73;8.70;;;34.40;99.90;;;;;;4974755;28;20205;-76
2023/06/22 09:19:54;;;;;;;10.40;8.05;;;34.40;99.90;;;;;;4968947;28;20237;-77
2023/06/22 09:22:21;;;;;;;8.55;7.82;;;34.40;99.90;;;;;;4977021;28;20190;-78
2023/06/22 09:24:48;;;;;;;11.68;8.45;;;34.30;99.90;;;;;;4975141;28;20220;-79
2023/06/22 09:27:16;;;;;;;8.52;7.72;;;34.40;99.90;;;;;;4979707;28;20206;-79
2023/06/22 09:29:43;;;;;;;10.45;8.63;;;34.40;99.90;;;;;;4975634;28;20190;-77
2023/06/22 09:32:10;;;;;;;10.20;8.68;;;34.00;99.90;;;;;;4976268;28;20264;-77
2023/06/22 09:34:36;;;;;;;8.65;7.85;;;34.10;99.90;;;;;;4973867;28;20202;-77
2023/06/22 09:37:03;;;;;;;11.18;8.55;;;34.30;99.90;;;;;;4975337;28;20245;-76
2023/06/22 09:39:30;;;;;;;9.20;8.23;;;34.30;99.90;;;;;;4973439;28;20232;-78
2023/06/22 09:41:59;;;;;;;9.35;7.90;;;34.20;99.90;;;;;;4974225;28;20648;-77
2023/06/22 09:44:27;;;;;;;9.13;8.15;;;34.40;99.90;;;;;;4976508;28;20212;-76
2023/06/22 09:46:54;;;;;;;10.25;8.77;;;34.50;99.90;;;;;;4975601;28;20202;-76
2023/06/22 09:49:20;;;;;;;8.68;7.72;;;34.50;99.90;;;;;;4975269;28;20194;-77
2023/06/22 09:51:47;;;;;;;11.05;8.18;;;34.50;99.90;;;;;;5006123;28;20237;-77
2023/06/22 09:54:14;;;;;;;9.98;7.90;;;34.10;99.90;;;;;;4975420;28;20194;-76
2023/06/22 09:56:41;;;;;;;9.88;8.70;;;34.00;99.90;;;;;;5006099;28;20202;-78
2023/06/22 09:59:07;;;;;;;8.82;7.95;;;33.90;99.90;;;;;;4973439;28;20712;-77
2023/06/22 10:01:36;;;;;;;10.85;8.13;;;33.60;99.90;;;;;;4975722;28;20241;-80
2023/06/22 10:04:03;;;;;;;9.77;8.77;;;33.40;99.90;;;;;;4975582;28;20227;-80
2023/06/22 10:06:30;;;;;;;10.15;8.60;;;33.20;99.90;;;;;;4977150;28;20202;-79
2023/06/22 10:08:57;;;;;;;12.75;8.30;;;33.00;99.90;;;;;;5009252;28;20198;-78
2023/06/22 10:11:28;;;;;;;9.88;8.35;;;32.90;99.90;;;;;;4977996;28;20239;-79
2023/06/22 10:13:55;;;;;;;10.27;7.70;;;32.80;99.90;;;;;;4973173;28;20208;-77
2023/06/22 10:16:22;;;;;;;9.80;8.25;;;32.60;99.90;;;;;;4975811;28;20232;-78
2023/06/22 10:18:50;;;;;;;13.70;8.90;;;32.80;99.90;;;;;;4973967;28;20279;-77
2023/06/22 10:21:17;;;;;;;9.57;8.32;;;32.10;99.90;;;;;;4974005;28;20238;-78
2023/06/22 10:23:44;;;;;;;11.23;8.68;;;32.20;99.90;;;;;;5007053;28;20236;-80
2023/06/22 10:26:10;;;;;;;10.60;8.63;;;32.30;99.90;;;;;;4975959;28;20202;-77
2023/06/22 10:28:37;;;;;;;8.93;8.10;;;32.30;99.90;;;;;;5007919;28;20210;-79
2023/06/22 10:31:04;;;;;;;11.48;8.93;;;32.60;99.90;;;;;;4975256;28;20217;-78
2023/06/22 10:33:31;;;;;;;10.95;9.60;;;32.80;99.90;;;;;;4973973;28;20760;-79
2023/06/22 10:35:59;;;;;;;10.45;9.13;;;32.80;99.90;;;;;;4971720;28;20285;-78
2023/06/22 10:38:26;;;;;;;9.05;8.15;;;32.60;99.90;;;;;;4976814;28;20198;-80
2023/06/22 10:40:52;;;;;;;9.50;8.35;;;32.50;99.90;;;;;;4974790;28;20524;-79
2023/06/22 10:43:19;;;;;;;8.90;8.07;;;32.90;99.90;;;;;;4977173;28;20202;-80
2023/06/22 10:45:46;;;;;;;9.85;8.85;;;33.30;99.90;;;;;;4975189;28;20210;-79
2023/06/22 10:48:13;;;;;;;11.52;8.45;;;33.40;99.90;;;;;;4974615;28;20248;-79
2023/06/22 10:50:40;;;;;;;9.85;8.43;;;33.30;99.90;;;;;;4975868;28;20237;-81
2023/06/22 10:53:08;;;;;;;12.23;8.15;;;33.40;99.90;;;;;;4977105;28;20193;-80
2023/06/22 10:55:35;;;;;;;11.07;8.57;;;33.10;99.90;;;;;;4975630;28;20225;-79
2023/06/22 10:58:01;;;;;;;9.82;8.48;;;33.10;99.90;;;;;;4977614;28;20359;-79
2023/06/22 11:00:28;;;;;;;10.90;9.13;;;33.20;99.90;;;;;;4975914;28;20308;-80
2023/06/22 11:02:55;;;;;;;9.73;8.20;;;33.20;99.90;;;;;;4973858;28;20212;-78
2023/06/22 11:05:22;;;;;;;8.25;7.55;;;33.40;99.90;;;;;;4973539;28;20207;-78
2023/06/22 11:07:49;;;;;;;8.45;7.55;;;33.60;99.90;;;;;;4975105;28;20671;-79
2023/06/22 11:10:17;;;;;;;8.80;8.05;;;33.70;99.90;;;;;;4976747;28;20264;-80
2023/06/22 11:12:44;;;;;;;8.73;7.93;;;33.50;99.90;;;;;;4976274;28;20676;-80
2023/06/22 11:15:11;;;;;;;9.13;8.15;;;33.60;99.90;;;;;;4975049;28;20202;-78
2023/06/22 11:17:38;;;;;;;9.45;8.43;;;33.60;99.90;;;;;;5007390;28;20205;-80
2023/06/22 11:20:10;;;;;;;9.15;7.93;;;33.60;99.90;;;;;;4974527;28;20281;-81
2023/06/22 11:22:37;;;;;;;9.68;8.43;;;33.50;99.90;;;;;;4977065;28;20657;-80
2023/06/22 11:25:05;;;;;;;11.02;9.15;;;33.60;99.90;;;;;;4975408;28;20233;-79
2023/06/22 11:27:33;;;;;;;11.55;8.27;;;33.70;99.90;;;;;;4976624;28;20263;-78
2023/06/22 11:30:00;;;;;;;10.82;8.75;;;33.60;99.90;;;;;;4975951;28;20624;-80
2023/06/22 11:32:26;;;;;;;9.65;8.65;;;33.20;99.90;;;;;;4976678;28;20276;-78
2023/06/22 11:34:53;;;;;;;9.40;8.50;;;33.20;99.90;;;;;;4976542;28;20260;-77
2023/06/22 11:37:20;;;;;;;10.50;8.48;;;33.20;99.90;;;;;;4974985;28;20657;-77
2023/06/22 11:39:47;;;;;;;9.52;8.45;;;33.10;99.90;;;;;;4975137;28;20234;-80
2023/06/22 11:42:13;;;;;;;9.82;8.50;;;32.80;99.90;;;;;;4978273;28;20198;-77
2023/06/22 11:44:43;;;;;;;9.02;8.13;;;32.70;99.90;;;;;;4979422;28;20201;-77
2023/06/22 11:47:09;;;;;;;10.15;9.07;;;32.70;99.90;;;;;;4977755;28;20217;-78
2023/06/22 11:49:36;;;;;;;9.43;8.00;;;32.80;99.90;;;;;;4979128;28;20198;-77
2023/06/22 11:52:03;;;;;;;9.38;8.48;;;32.80;99.90;;;;;;4979435;28;20276;-77
2023/06/22 11:54:30;;;;;;;10.30;8.68;;;33.00;99.90;;;;;;4976632;28;20241;-79
2023/06/22 11:56:56;;;;;;;10.77;7.85;;;33.20;99.90;;;;;;4978894;28;20486;-77
2023/06/22 11:59:23;;;;;;;11.43;8.25;;;33.20;99.90;;;;;;4981113;28;20706;-82
2023/06/22 12:01:51;;;;;;;10.55;8.23;;;33.40;99.90;;;;;;4980902;28;20229;-80
2023/06/22 12:04:18;;;;;;;9.85;8.63;;;33.50;99.90;;;;;;4975713;28;20205;-80
2023/06/22 12:06:45;;;;;;;8.93;8.02;;;33.60;99.90;;;;;;4978844;28;20230;-80
2023/06/22 12:09:13;;;;;;;12.48;8.43;;;33.90;99.90;;;;;;4978131;28;20217;-81
2023/06/22 12:11:40;;;;;;;11.93;9.13;;;33.90;99.90;;;;;;4981296;28;20250;-84
2023/06/22 12:14:08;;;;;;;14.05;8.40;;;33.70;99.90;;;;;;4981112;28;20206;-79
2023/06/22 12:16:35;;;;;;;11.93;8.73;;;33.70;99.90;;;;;;4982851;28;20669;-80
2023/06/22 12:19:03;;;;;;;9.50;8.50;;;33.60;99.90;;;;;;4982519;28;20272;-81
2023/06/22 12:21:30;;;;;;;11.48;9.05;;;33.40;99.90;;;;;;4980162;28;20336;-79
2023/06/22 12:23:56;;;;;;;9.35;8.40;;;33.20;99.90;;;;;;5012326;28;20217;-80
2023/06/22 12:26:23;;;;;;;9.27;8.38;;;33.00;99.90;;;;;;4981261;28;20260;-80
2023/06/22 12:28:50;;;;;;;9.82;8.85;;;32.80;99.90;;;;;;4979197;28;20261;-80
2023/06/22 12:31:17;;;;;;;10.23;9.00;;;32.60;99.90;;;;;;4979445;28;20225;-81
2023/06/22 12:33:44;;;;;;;11.27;9.95;;;32.20;99.90;;;;;;4979222;28;20222;-79
2023/06/22 12:36:12;;;;;;;11.18;10.05;;;32.00;99.90;;;;;;5011988;28;20198;-78
2023/06/22 12:38:39;;;;;;;11.73;10.52;;;31.70;99.90;;;;;;5011091;28;20198;-78
2023/06/22 12:41:06;;;;;;;11.90;10.70;;;31.60;99.90;;;;;;4977919;28;20226;-80